createdAt,value
2022-09-12T00:01:11.337Z,2.10
2022-09-12T00:03:39.226Z,2.20
2022-09-12T00:06:27.773Z,2.10
2022-09-12T00:08:56.257Z,2.28
2022-09-12T00:11:23.039Z,2.08
2022-09-12T00:13:49.705Z,2.05
2022-09-12T00:16:21.450Z,2.13
2022-09-12T00:18:48.239Z,2.20
2022-09-12T00:21:16.979Z,2.30
2022-09-12T00:23:44.093Z,2.13
2022-09-12T00:26:10.773Z,2.20
2022-09-12T00:28:39.480Z,2.10
2022-09-12T00:31:08.825Z,2.15
2022-09-12T00:33:36.330Z,2.13
2022-09-12T00:36:08.409Z,2.22
2022-09-12T00:38:38.490Z,2.10
2022-09-12T00:41:06.097Z,2.10
2022-09-12T00:43:42.897Z,2.00
2022-09-12T00:46:27.983Z,2.10
2022-09-12T00:49:03.043Z,2.28
2022-09-12T00:51:33.013Z,2.30
2022-09-12T00:54:02.937Z,2.03
2022-09-12T00:56:29.548Z,2.17
2022-09-12T00:59:05.825Z,2.17
2022-09-12T01:01:32.900Z,2.10
2022-09-12T01:04:00.183Z,2.03
2022-09-12T01:06:35.509Z,2.03
2022-09-12T01:09:04.680Z,1.90
2022-09-12T01:11:34.369Z,2.00
2022-09-12T01:14:00.945Z,2.20
2022-09-12T01:16:27.798Z,2.20
2022-09-12T01:19:31.952Z,2.20
2022-09-12T01:22:32.228Z,2.00
2022-09-12T01:25:26.800Z,2.10
2022-09-12T01:27:53.502Z,2.10
2022-09-12T01:30:52.197Z,2.33
2022-09-12T01:34:05.207Z,2.05
2022-09-12T01:36:46.098Z,2.30
2022-09-12T01:39:31.272Z,2.00
2022-09-12T01:42:40.412Z,2.13
2022-09-12T01:45:46.458Z,2.28
2022-09-12T01:48:24.401Z,2.10
2022-09-12T01:50:57.176Z,1.88
2022-09-12T01:53:32.363Z,2.17
2022-09-12T01:56:13.279Z,1.92
2022-09-12T01:59:01.260Z,2.28
2022-09-12T02:01:31.588Z,1.98
2022-09-12T02:04:09.081Z,1.92
2022-09-12T02:07:04.826Z,2.00
2022-09-12T02:09:54.432Z,1.90
2022-09-12T02:12:25.867Z,1.90
2022-09-12T02:14:59.047Z,1.95
2022-09-12T02:17:26.921Z,2.10
2022-09-12T02:20:01.335Z,2.20
2022-09-12T02:22:29.677Z,1.92
2022-09-12T02:25:00.562Z,1.95
2022-09-12T02:27:42.493Z,2.00
2022-09-12T02:30:10.341Z,2.05
2022-09-12T02:32:42.552Z,2.25
2022-09-12T02:35:33.897Z,1.90
2022-09-12T02:38:11.333Z,2.20
2022-09-12T02:40:38.414Z,2.15
2022-09-12T02:43:06.038Z,1.95
2022-09-12T02:45:34.483Z,2.08
2022-09-12T02:48:03.978Z,1.95
2022-09-12T02:50:30.649Z,1.95
2022-09-12T02:53:03.826Z,1.88
2022-09-12T02:55:33.408Z,1.95
2022-09-12T02:58:05.214Z,2.10
2022-09-12T03:00:37.727Z,2.00
2022-09-12T03:03:25.782Z,2.08
2022-09-12T03:06:02.135Z,2.00
2022-09-12T03:09:00.373Z,2.17
2022-09-12T03:11:39.130Z,2.10
2022-09-12T03:14:27.747Z,1.83
2022-09-12T03:16:58.702Z,1.90
2022-09-12T03:20:02.002Z,2.10
2022-09-12T03:22:35.245Z,2.00
2022-09-12T03:25:34.841Z,2.10
2022-09-12T03:28:31.561Z,1.90
2022-09-12T03:30:59.581Z,2.13
2022-09-12T03:33:26.814Z,1.95
2022-09-12T03:35:54.966Z,1.92
2022-09-12T03:38:21.541Z,2.08
2022-09-12T03:40:52.724Z,2.25
2022-09-12T03:43:21.174Z,2.08
2022-09-12T03:45:51.562Z,2.00
2022-09-12T03:48:18.077Z,1.90
2022-09-12T03:50:44.545Z,2.08
2022-09-12T03:53:14.081Z,2.10
2022-09-12T03:55:43.527Z,2.10
2022-09-12T03:58:10.074Z,2.10
2022-09-12T04:00:37.645Z,2.20
2022-09-12T04:03:04.172Z,2.08
2022-09-12T04:05:30.655Z,2.05
2022-09-12T04:07:57.172Z,2.10
2022-09-12T04:10:23.638Z,1.75
2022-09-12T04:12:50.183Z,1.90
2022-09-12T04:15:16.736Z,2.15
2022-09-12T04:17:43.255Z,1.83
2022-09-12T04:20:10.017Z,1.90
2022-09-12T04:22:36.527Z,2.05
2022-09-12T04:25:04.044Z,2.03
2022-09-12T04:27:30.967Z,1.90
2022-09-12T04:29:58.799Z,1.98
2022-09-12T04:32:25.394Z,2.00
2022-09-12T04:34:55.273Z,1.95
2022-09-12T04:37:23.555Z,2.10
2022-09-12T04:39:50.721Z,2.08
2022-09-12T04:42:17.441Z,2.00
2022-09-12T04:44:44.015Z,2.20
2022-09-12T04:47:10.654Z,2.03
2022-09-12T04:49:37.720Z,2.00
2022-09-12T04:52:04.327Z,2.03
2022-09-12T04:54:30.848Z,2.10
2022-09-12T04:56:57.471Z,2.03
2022-09-12T04:59:24.021Z,2.28
2022-09-12T05:01:50.642Z,2.10
2022-09-12T05:04:17.475Z,2.28
2022-09-12T05:06:44.173Z,1.92
2022-09-12T05:09:14.104Z,2.00
2022-09-12T05:14:33.343Z,2.13
2022-09-12T05:17:01.696Z,2.15
2022-09-12T05:19:30.406Z,2.03
2022-09-12T05:21:57.013Z,2.20
2022-09-12T05:24:24.728Z,2.50
2022-09-12T05:26:51.507Z,2.67
2022-09-12T05:29:18.349Z,2.60
2022-09-12T05:31:44.878Z,3.17
2022-09-12T05:34:11.373Z,3.78
2022-09-12T05:36:38.598Z,3.65
2022-09-12T05:39:05.296Z,4.20
2022-09-12T05:41:33.825Z,4.05
2022-09-12T05:44:02.978Z,4.40
2022-09-12T05:46:32.261Z,4.90
2022-09-12T05:49:04.518Z,4.53
2022-09-12T05:51:38.061Z,4.75
2022-09-12T05:54:06.337Z,5.30
2022-09-12T05:56:34.915Z,4.55
2022-09-12T05:59:04.752Z,5.38
2022-09-12T06:01:33.333Z,5.10
2022-09-12T06:04:01.522Z,5.00
2022-09-12T06:06:29.550Z,5.22
2022-09-12T06:08:58.884Z,5.28
2022-09-12T06:11:28.337Z,5.30
2022-09-12T06:13:56.861Z,4.95
2022-09-12T06:16:26.150Z,5.30
2022-09-12T06:18:57.439Z,5.30
2022-09-12T06:21:26.523Z,5.30
2022-09-12T06:23:56.140Z,5.80
2022-09-12T06:26:23.571Z,5.22
2022-09-12T06:28:52.051Z,5.15
2022-09-12T06:31:21.133Z,4.70
2022-09-12T06:33:50.124Z,5.13
2022-09-12T06:36:19.403Z,5.45
2022-09-12T06:38:46.381Z,5.65
2022-09-12T06:41:13.734Z,5.30
2022-09-12T06:43:41.622Z,5.65
2022-09-12T06:46:09.706Z,5.32
2022-09-12T06:48:41.038Z,5.55
2022-09-12T06:51:14.165Z,4.85
2022-09-12T06:53:41.206Z,5.55
2022-09-12T06:56:11.503Z,5.70
2022-09-12T06:58:38.323Z,5.60
2022-09-12T07:01:11.006Z,4.78
2022-09-12T07:03:38.397Z,5.03
2022-09-12T07:06:07.173Z,5.00
2022-09-12T07:08:35.472Z,5.63
2022-09-12T07:11:13.892Z,5.50
2022-09-12T07:13:42.133Z,4.93
2022-09-12T07:16:10.370Z,5.57
2022-09-12T07:18:40.775Z,5.40
2022-09-12T07:21:11.661Z,5.30
2022-09-12T07:23:40.035Z,5.53
2022-09-12T07:26:08.093Z,5.43
2022-09-12T07:28:34.976Z,5.78
2022-09-12T07:31:16.672Z,5.68
2022-09-12T07:33:44.342Z,6.00
2022-09-12T07:36:13.704Z,5.50
2022-09-12T07:38:41.139Z,5.55
2022-09-12T07:41:12.505Z,5.75
2022-09-12T07:43:39.117Z,5.05
2022-09-12T07:46:05.929Z,5.53
2022-09-12T07:48:32.453Z,5.43
2022-09-12T07:51:05.242Z,5.80
2022-09-12T07:53:40.344Z,5.60
2022-09-12T07:56:08.841Z,6.20
2022-09-12T07:58:36.655Z,6.05
2022-09-12T08:01:08.925Z,5.03
2022-09-12T08:03:39.458Z,5.93
2022-09-12T08:06:08.485Z,6.40
2022-09-12T08:08:35.408Z,5.80
2022-09-12T08:11:05.993Z,6.38
2022-09-12T08:13:34.595Z,6.28
2022-09-12T08:16:06.402Z,5.63
2022-09-12T08:18:34.642Z,6.10
2022-09-12T08:21:03.676Z,5.40
2022-09-12T08:23:30.802Z,6.07
2022-09-12T08:26:00.081Z,6.00
2022-09-12T08:28:28.327Z,5.70
2022-09-12T08:30:54.950Z,5.82
2022-09-12T08:33:22.214Z,6.10
2022-09-12T08:35:48.809Z,5.57
2022-09-12T08:38:15.321Z,7.05
2022-09-12T08:42:36.596Z,5.90
2022-09-12T08:45:18.521Z,6.25
2022-09-12T08:47:46.770Z,6.25
2022-09-12T08:50:20.132Z,6.50
2022-09-12T08:52:54.649Z,6.05
2022-09-12T08:56:05.573Z,5.68
2022-09-12T08:58:40.277Z,5.68
2022-09-12T09:01:32.608Z,5.70
2022-09-12T09:04:30.348Z,6.07
2022-09-12T09:07:21.465Z,6.22
2022-09-12T09:10:01.380Z,6.22
2022-09-12T09:12:44.908Z,5.85
2022-09-12T09:15:40.645Z,5.75
2022-09-12T09:18:23.311Z,6.13
2022-09-12T09:21:17.386Z,6.13
2022-09-12T09:23:49.481Z,5.95
2022-09-12T09:26:27.319Z,5.78
2022-09-12T09:29:04.998Z,6.10
2022-09-12T09:31:38.373Z,6.20
2022-09-12T09:34:15.766Z,6.13
2022-09-12T09:36:50.315Z,6.10
2022-09-12T09:39:53.694Z,5.78
2022-09-12T09:42:38.904Z,6.15
2022-09-12T09:45:16.139Z,5.78
2022-09-12T09:47:46.866Z,5.78
2022-09-12T09:50:16.975Z,5.90
2022-09-12T09:52:44.112Z,6.38
2022-09-12T09:55:17.774Z,5.95
2022-09-12T09:57:46.622Z,5.97
2022-09-12T10:00:30.625Z,6.38
2022-09-12T10:03:22.039Z,5.47
2022-09-12T10:05:59.628Z,5.80
2022-09-12T10:08:29.411Z,6.10
2022-09-12T10:11:06.444Z,5.80
2022-09-12T10:14:04.606Z,5.55
2022-09-12T10:16:34.589Z,5.63
2022-09-12T10:19:03.070Z,5.80
2022-09-12T10:21:51.675Z,5.40
2022-09-12T10:24:30.779Z,5.55
2022-09-12T10:27:08.323Z,5.43
2022-09-12T10:29:44.335Z,5.70
2022-09-12T10:32:12.716Z,5.30
2022-09-12T10:34:44.717Z,5.15
2022-09-12T10:37:18.724Z,5.50
2022-09-12T10:39:56.527Z,5.57
2022-09-12T10:42:44.361Z,5.03
2022-09-12T10:45:32.819Z,5.22
2022-09-12T10:48:21.955Z,5.15
2022-09-12T10:50:48.479Z,5.18
2022-09-12T10:53:20.494Z,5.05
2022-09-12T10:56:11.996Z,5.13
2022-09-12T10:59:03.385Z,5.00
2022-09-12T11:01:33.926Z,5.00
2022-09-12T11:04:20.422Z,4.97
2022-09-12T11:07:25.650Z,5.00
2022-09-12T11:10:19.513Z,5.20
2022-09-12T11:13:13.936Z,5.03
2022-09-12T11:16:10.186Z,5.10
2022-09-12T11:18:53.401Z,5.20
2022-09-12T11:21:34.131Z,5.00
2022-09-12T11:24:22.627Z,4.45
2022-09-12T11:26:58.082Z,4.43
2022-09-12T11:29:49.448Z,4.72
2022-09-12T11:32:52.903Z,5.03
2022-09-12T11:35:31.021Z,4.53
2022-09-12T11:38:16.109Z,4.43
2022-09-12T11:40:45.605Z,4.53
2022-09-12T11:43:46.199Z,4.80
2022-09-12T11:46:36.328Z,4.80
2022-09-12T11:49:06.388Z,5.22
2022-09-12T11:51:46.046Z,4.45
2022-09-12T11:54:22.933Z,4.78
2022-09-12T11:56:53.778Z,4.85
2022-09-12T11:59:29.960Z,4.75
2022-09-12T12:02:00.419Z,4.57
2022-09-12T12:04:36.544Z,5.18
2022-09-12T12:07:10.718Z,4.90
2022-09-12T12:09:51.602Z,4.65
2022-09-12T12:12:25.837Z,4.85
2022-09-12T12:14:54.424Z,4.05
2022-09-12T12:17:23.222Z,5.00
2022-09-12T12:20:08.195Z,4.70
2022-09-12T12:22:35.525Z,4.45
2022-09-12T12:25:16.238Z,5.10
2022-09-12T12:27:59.247Z,4.40
2022-09-12T12:30:31.601Z,4.38
2022-09-12T12:33:21.905Z,4.22
2022-09-12T12:36:00.291Z,3.95
2022-09-12T12:38:34.764Z,4.28
2022-09-12T12:41:16.556Z,4.78
2022-09-12T12:43:47.554Z,4.00
2022-09-12T12:46:16.447Z,4.53
2022-09-12T12:49:09.482Z,4.63
2022-09-12T12:51:45.702Z,4.55
2022-09-12T12:54:30.437Z,4.50
2022-09-12T12:57:46.091Z,4.20
2022-09-12T13:00:24.717Z,4.25
2022-09-12T13:02:58.279Z,4.15
2022-09-12T13:05:27.280Z,4.20
2022-09-12T13:07:57.905Z,3.83
2022-09-12T13:10:28.920Z,4.38
2022-09-12T13:13:02.678Z,4.53
2022-09-12T13:15:30.075Z,4.30
2022-09-12T13:18:01.768Z,4.13
2022-09-12T13:20:44.427Z,4.03
2022-09-12T13:23:23.801Z,4.45
2022-09-12T13:25:59.199Z,4.22
2022-09-12T13:28:27.092Z,4.07
2022-09-12T13:31:17.215Z,4.15
2022-09-12T13:33:50.130Z,4.22
2022-09-12T13:36:44.777Z,4.10
2022-09-12T13:39:28.921Z,3.95
2022-09-12T13:42:03.222Z,4.10
2022-09-12T13:44:30.889Z,4.20
2022-09-12T13:47:03.549Z,4.10
2022-09-12T13:49:36.936Z,3.95
2022-09-12T13:52:08.320Z,4.05
2022-09-12T13:54:38.214Z,4.07
2022-09-12T13:57:06.020Z,3.90
2022-09-12T13:59:44.296Z,4.18
2022-09-12T14:02:19.924Z,3.60
2022-09-12T14:05:09.319Z,3.90
2022-09-12T14:07:56.279Z,4.00
2022-09-12T14:10:34.649Z,3.72
2022-09-12T14:13:05.571Z,4.15
2022-09-12T14:15:35.918Z,3.33
2022-09-12T14:18:05.517Z,3.83
2022-09-12T14:20:36.242Z,3.80
2022-09-12T14:23:23.940Z,3.75
2022-09-12T14:25:52.077Z,3.58
2022-09-12T14:28:23.442Z,3.58
2022-09-12T14:31:00.667Z,3.70
2022-09-12T14:33:27.456Z,3.83
2022-09-12T14:36:16.628Z,3.85
2022-09-12T14:38:45.122Z,3.75
2022-09-12T14:41:14.307Z,3.90
2022-09-12T14:43:51.338Z,3.80
2022-09-12T14:46:23.256Z,3.83
2022-09-12T14:48:54.270Z,3.83
2022-09-12T14:51:46.206Z,4.15
2022-09-12T14:54:33.838Z,3.47
2022-09-12T14:57:33.022Z,3.80
2022-09-12T15:00:11.880Z,3.60
2022-09-12T15:02:39.733Z,3.80
2022-09-12T15:05:09.073Z,3.80
2022-09-12T15:07:36.845Z,3.83
2022-09-12T15:10:05.690Z,3.70
2022-09-12T15:12:32.309Z,3.58
2022-09-12T15:15:14.710Z,3.90
2022-09-12T15:17:41.474Z,3.30
2022-09-12T15:20:08.472Z,3.55
2022-09-12T15:22:35.904Z,3.50
2022-09-12T15:25:02.703Z,3.88
2022-09-12T15:27:29.196Z,3.60
2022-09-12T15:29:56.279Z,3.67
2022-09-12T15:32:28.514Z,3.72
2022-09-12T15:34:55.040Z,3.53
2022-09-12T15:37:23.650Z,3.60
2022-09-12T15:39:50.892Z,3.80
2022-09-12T15:42:23.069Z,3.50
2022-09-12T15:44:49.560Z,3.45
2022-09-12T15:47:16.039Z,3.50
2022-09-12T15:49:42.666Z,3.50
2022-09-12T15:52:15.029Z,3.45
2022-09-12T15:54:41.984Z,3.47
2022-09-12T15:57:08.535Z,3.60
2022-09-12T15:59:35.445Z,3.63
2022-09-12T16:02:02.661Z,3.55
2022-09-12T16:04:30.443Z,3.50
2022-09-12T16:06:57.455Z,3.67
2022-09-12T16:09:24.223Z,3.30
2022-09-12T16:11:50.880Z,3.38
2022-09-12T16:14:18.825Z,3.25
2022-09-12T16:16:52.903Z,3.55
2022-09-12T16:19:19.515Z,3.25
2022-09-12T16:21:46.034Z,3.40
2022-09-12T16:24:12.537Z,3.45
2022-09-12T16:26:39.135Z,3.35
2022-09-12T16:29:05.765Z,3.58
2022-09-12T16:31:32.318Z,3.35
2022-09-12T16:33:58.877Z,3.03
2022-09-12T16:36:25.392Z,3.40
2022-09-12T16:38:53.783Z,3.33
2022-09-12T16:41:24.202Z,3.22
2022-09-12T16:43:51.937Z,3.70
2022-09-12T16:46:21.461Z,3.40
2022-09-12T16:48:52.469Z,3.10
2022-09-12T16:51:28.166Z,3.13
2022-09-12T16:53:55.747Z,3.13
2022-09-12T16:56:23.089Z,3.40
2022-09-12T16:58:49.825Z,3.20
2022-09-12T17:01:19.119Z,3.25
2022-09-12T17:03:46.081Z,3.38
2022-09-12T17:06:15.118Z,3.03
2022-09-12T17:08:44.297Z,3.05
2022-09-12T17:11:13.489Z,3.22
2022-09-12T17:14:02.742Z,3.40
2022-09-12T17:16:27.536Z,3.20
2022-09-12T17:18:54.236Z,3.10
2022-09-12T17:21:21.342Z,3.00
2022-09-12T17:23:48.370Z,3.28
2022-09-12T17:26:15.030Z,3.33
2022-09-12T17:28:42.402Z,2.88
2022-09-12T17:31:12.272Z,3.20
2022-09-12T17:33:39.772Z,3.13
2022-09-12T17:36:15.008Z,2.97
2022-09-12T17:38:42.486Z,3.30
2022-09-12T17:41:16.099Z,3.17
2022-09-12T17:43:43.439Z,2.95
2022-09-12T17:46:10.211Z,3.00
2022-09-12T17:48:37.265Z,3.20
2022-09-12T17:51:11.528Z,2.90
2022-09-12T17:53:38.106Z,3.20
2022-09-12T17:56:06.205Z,2.88
2022-09-12T17:58:33.577Z,3.05
2022-09-12T18:01:20.713Z,3.05
2022-09-12T18:03:47.501Z,2.80
2022-09-12T18:06:15.073Z,3.17
2022-09-12T18:08:41.790Z,2.85
2022-09-12T18:11:08.682Z,3.10
2022-09-12T18:13:35.582Z,3.13
2022-09-12T18:16:07.091Z,2.95
2022-09-12T18:18:34.666Z,2.92
2022-09-12T18:21:01.871Z,3.00
2022-09-12T18:23:28.372Z,2.75
2022-09-12T18:25:59.337Z,3.00
2022-09-12T18:28:26.338Z,3.03
2022-09-12T18:30:53.581Z,2.90
2022-09-12T18:33:23.919Z,2.90
2022-09-12T18:35:51.142Z,3.08
2022-09-12T18:38:18.031Z,3.13
2022-09-12T18:40:44.836Z,3.00
2022-09-12T18:43:11.381Z,2.95
2022-09-12T18:45:38.003Z,2.90
2022-09-12T18:48:06.156Z,2.80
2022-09-12T18:50:33.089Z,3.00
2022-09-12T18:53:00.026Z,2.50
2022-09-12T18:55:26.790Z,2.60
2022-09-12T18:57:55.410Z,2.60
2022-09-12T19:00:21.980Z,2.80
2022-09-12T19:02:48.486Z,2.80
2022-09-12T19:05:15.086Z,2.70
2022-09-12T19:07:41.620Z,2.58
2022-09-12T19:10:09.003Z,2.80
2022-09-12T19:12:35.581Z,2.60
2022-09-12T19:15:02.111Z,2.70
2022-09-12T19:17:28.611Z,2.50
2022-09-12T19:19:55.435Z,3.05
2022-09-12T19:22:22.258Z,2.90
2022-09-12T19:24:48.816Z,2.40
2022-09-12T19:27:16.149Z,2.55
2022-09-12T19:29:42.725Z,2.80
2022-09-12T19:32:09.341Z,2.47
2022-09-12T19:34:35.905Z,2.58
2022-09-12T19:37:02.508Z,2.83
2022-09-12T19:39:29.067Z,2.72
2022-09-12T19:41:55.640Z,2.42
2022-09-12T19:44:23.717Z,2.50
2022-09-12T19:46:50.805Z,2.70
2022-09-12T19:49:17.362Z,2.60
2022-09-12T19:51:43.982Z,2.80
2022-09-12T19:54:10.692Z,2.63
2022-09-12T19:56:37.382Z,2.50
2022-09-12T19:59:04.005Z,2.30
2022-09-12T20:01:30.669Z,2.63
2022-09-12T20:03:58.435Z,2.17
2022-09-12T20:06:25.663Z,2.60
2022-09-12T20:08:52.918Z,2.47
2022-09-12T20:11:22.068Z,2.60
2022-09-12T20:13:48.953Z,2.38
2022-09-12T20:16:20.984Z,2.42
2022-09-12T20:18:49.400Z,2.35
2022-09-12T20:21:19.004Z,2.38
2022-09-12T20:23:46.543Z,2.30
2022-09-12T20:26:13.758Z,2.40
2022-09-12T20:28:41.395Z,2.22
2022-09-12T20:31:11.857Z,2.40
2022-09-12T20:33:38.771Z,2.40
2022-09-12T20:36:14.487Z,2.28
2022-09-12T20:38:42.068Z,2.38
2022-09-12T20:41:10.012Z,2.40
2022-09-12T20:43:38.520Z,2.40
2022-09-12T20:46:06.462Z,2.13
2022-09-12T20:48:33.030Z,2.30
2022-09-12T20:50:59.783Z,2.28
2022-09-12T20:53:26.733Z,2.22
2022-09-12T20:55:53.705Z,2.03
2022-09-12T20:58:21.909Z,2.42
2022-09-12T21:00:48.503Z,2.10
2022-09-12T21:03:15.972Z,2.03
2022-09-12T21:05:43.713Z,2.20
2022-09-12T21:08:11.143Z,2.30
2022-09-12T21:10:39.883Z,2.35
2022-09-12T21:13:06.413Z,2.40
2022-09-12T21:15:32.875Z,2.33
2022-09-12T21:17:59.361Z,2.13
2022-09-12T21:20:25.860Z,2.30
2022-09-12T21:22:52.399Z,2.40
2022-09-12T21:25:18.951Z,2.70
2022-09-12T21:27:45.491Z,2.00
2022-09-12T21:30:12.603Z,2.10
2022-09-12T21:32:39.182Z,2.20
2022-09-12T21:35:06.038Z,2.28
2022-09-12T21:37:32.937Z,2.40
2022-09-12T21:39:59.506Z,2.20
2022-09-12T21:42:26.080Z,2.28
2022-09-12T21:44:52.981Z,2.50
2022-09-12T21:47:19.526Z,2.40
2022-09-12T21:49:46.022Z,2.40
2022-09-12T21:52:12.780Z,2.30
2022-09-12T21:54:39.527Z,2.13
2022-09-12T21:57:06.188Z,2.22
2022-09-12T21:59:32.653Z,2.05
2022-09-12T22:01:59.712Z,2.55
2022-09-12T22:04:26.524Z,2.35
2022-09-12T22:06:53.184Z,2.00
2022-09-12T22:09:19.721Z,2.20
2022-09-12T22:11:46.934Z,2.00
2022-09-12T22:14:13.526Z,2.10
2022-09-12T22:16:40.475Z,2.20
2022-09-12T22:19:07.070Z,2.17
2022-09-12T22:21:33.581Z,2.20
2022-09-12T22:24:18.556Z,2.03
2022-09-12T22:26:46.368Z,2.20
2022-09-12T22:29:15.940Z,2.10
2022-09-12T22:31:42.970Z,2.17
2022-09-12T22:34:09.609Z,2.17
2022-09-12T22:36:38.913Z,2.20
2022-09-12T22:39:06.217Z,1.95
2022-09-12T22:41:32.709Z,2.00
2022-09-12T22:43:59.861Z,2.20
2022-09-12T22:46:27.571Z,2.00
2022-09-12T22:48:55.680Z,2.00
2022-09-12T22:51:22.275Z,1.95
2022-09-12T22:53:48.969Z,2.15
2022-09-12T22:56:15.784Z,2.13
2022-09-12T22:58:43.530Z,1.90
2022-09-12T23:01:10.927Z,2.30
2022-09-12T23:03:37.795Z,1.95
2022-09-12T23:06:05.594Z,1.92
2022-09-12T23:08:35.249Z,2.15
2022-09-12T23:11:05.468Z,2.10
2022-09-12T23:13:32.854Z,2.00
2022-09-12T23:16:01.878Z,2.03
2022-09-12T23:18:28.977Z,2.13
2022-09-12T23:21:00.516Z,1.98
2022-09-12T23:23:27.414Z,1.92
2022-09-12T23:26:03.104Z,1.98
2022-09-12T23:28:29.910Z,2.10
2022-09-12T23:30:57.326Z,2.15
2022-09-12T23:33:23.867Z,2.10
2022-09-12T23:35:50.521Z,1.98
2022-09-12T23:38:17.064Z,2.20
2022-09-12T23:40:43.612Z,2.25
2022-09-12T23:43:10.162Z,2.00
2022-09-12T23:45:36.679Z,2.00
2022-09-12T23:48:03.241Z,2.15
2022-09-12T23:50:29.747Z,1.95
2022-09-12T23:52:56.257Z,2.10
2022-09-12T23:55:23.664Z,2.08
2022-09-12T23:57:50.189Z,1.95
